createdAt,value
2017-05-18T00:00:01.011Z,57.50
2017-05-18T00:02:29.304Z,57.50
2017-05-18T00:04:58.603Z,57.70
2017-05-18T00:07:26.922Z,57.80
2017-05-18T00:09:55.204Z,57.90
2017-05-18T00:12:23.848Z,58.10
2017-05-18T00:14:52.144Z,58.50
2017-05-18T00:17:20.436Z,59.10
2017-05-18T00:19:49.048Z,59.00
2017-05-18T00:22:17.324Z,58.80
2017-05-18T00:24:46.348Z,59.20
2017-05-18T00:27:15.051Z,59.10
2017-05-18T00:29:43.344Z,59.50
2017-05-18T00:32:12.367Z,59.40
2017-05-18T00:34:40.955Z,59.70
2017-05-18T00:37:09.231Z,59.70
2017-05-18T00:39:37.510Z,59.80
2017-05-18T00:42:06.873Z,59.80
2017-05-18T00:44:35.149Z,59.70
2017-05-18T00:47:04.171Z,59.80
2017-05-18T00:49:32.776Z,59.90
2017-05-18T00:52:01.055Z,60.00
2017-05-18T00:54:29.363Z,60.60
2017-05-18T00:56:57.965Z,60.90
2017-05-18T00:59:26.244Z,60.60
2017-05-18T01:01:55.276Z,60.80
2017-05-18T01:04:23.868Z,60.60
2017-05-18T01:06:52.144Z,60.90
2017-05-18T01:09:20.439Z,60.60
2017-05-18T01:11:49.076Z,61.10
2017-05-18T01:14:18.123Z,60.90
2017-05-18T01:16:46.395Z,60.80
2017-05-18T01:19:14.963Z,61.00
2017-05-18T01:21:43.254Z,61.20
2017-05-18T01:24:12.291Z,61.90
2017-05-18T01:26:40.981Z,61.20
2017-05-18T01:29:09.263Z,61.20
2017-05-18T01:31:37.544Z,61.30
2017-05-18T01:34:06.150Z,61.30
2017-05-18T01:36:34.428Z,61.20
2017-05-18T01:39:02.720Z,61.40
2017-05-18T01:41:32.083Z,61.40
2017-05-18T01:44:00.374Z,61.70
2017-05-18T01:46:29.396Z,61.30
2017-05-18T01:48:57.988Z,61.80
2017-05-18T01:51:26.278Z,61.30
2017-05-18T01:53:55.301Z,61.40
2017-05-18T01:56:23.902Z,61.20
2017-05-18T01:58:52.179Z,61.20
2017-05-18T02:01:21.195Z,61.90
2017-05-18T02:03:49.809Z,61.00
2017-05-18T02:06:18.090Z,61.00
2017-05-18T02:08:47.126Z,61.10
2017-05-18T02:11:15.731Z,61.40
2017-05-18T02:13:44.008Z,61.40
2017-05-18T02:16:13.032Z,61.30
2017-05-18T02:18:41.628Z,61.40
2017-05-18T02:21:09.919Z,61.30
2017-05-18T02:23:38.209Z,61.80
2017-05-18T02:26:06.812Z,61.70
2017-05-18T02:28:35.105Z,61.60
2017-05-18T02:31:04.126Z,61.60
2017-05-18T02:33:32.721Z,61.50
2017-05-18T02:36:01.009Z,61.80
2017-05-18T02:38:30.040Z,61.70
2017-05-18T02:40:58.624Z,61.70
2017-05-18T02:43:27.705Z,61.50
2017-05-18T02:45:56.001Z,61.50
2017-05-18T02:48:25.360Z,61.50
2017-05-18T02:50:53.657Z,61.50
2017-05-18T02:53:21.949Z,61.50
2017-05-18T02:55:50.545Z,61.40
2017-05-18T02:58:18.823Z,61.30
2017-05-18T03:00:47.863Z,61.80
2017-05-18T03:03:16.560Z,61.90
2017-05-18T03:05:44.846Z,61.70
2017-05-18T03:08:13.869Z,62.00
2017-05-18T03:10:42.444Z,61.90
2017-05-18T03:13:10.725Z,61.60
2017-05-18T03:15:39.012Z,62.00
2017-05-18T03:18:08.327Z,62.00
2017-05-18T03:20:36.691Z,62.00
2017-05-18T03:23:04.986Z,61.90
2017-05-18T03:25:33.563Z,61.90
2017-05-18T03:28:01.840Z,62.40
2017-05-18T03:30:30.115Z,62.40
2017-05-18T03:32:59.484Z,62.80
2017-05-18T03:35:27.779Z,62.60
2017-05-18T03:37:56.071Z,62.60
2017-05-18T03:40:24.659Z,62.40
2017-05-18T03:42:52.951Z,62.80
2017-05-18T03:45:21.988Z,63.10
2017-05-18T03:47:50.568Z,62.70
2017-05-18T03:50:18.851Z,63.20
2017-05-18T03:52:47.901Z,63.50
2017-05-18T03:55:16.583Z,63.60
2017-05-18T03:57:44.859Z,63.20
2017-05-18T04:00:13.137Z,63.20
2017-05-18T04:02:42.492Z,63.30
2017-05-18T04:05:10.807Z,63.50
2017-05-18T04:07:39.113Z,63.40
2017-05-18T04:10:07.808Z,63.40
2017-05-18T04:12:36.879Z,63.10
2017-05-18T04:15:05.169Z,63.20
2017-05-18T04:17:33.788Z,63.20
2017-05-18T04:20:02.115Z,67.10
2017-05-18T04:22:30.408Z,65.50
2017-05-18T04:24:59.003Z,64.10
2017-05-18T04:27:27.299Z,62.70
2017-05-18T04:29:55.581Z,61.30
2017-05-18T04:32:24.127Z,60.40
2017-05-18T04:34:52.408Z,60.00
2017-05-18T04:37:20.693Z,59.60
2017-05-18T04:39:49.269Z,58.60
2017-05-18T04:42:17.557Z,58.30
2017-05-18T04:44:46.571Z,57.90
2017-05-18T04:47:15.143Z,58.00
2017-05-18T04:49:43.433Z,57.10
2017-05-18T04:52:11.716Z,57.00
2017-05-18T04:54:41.096Z,57.90
2017-05-18T04:57:09.371Z,57.00
2017-05-18T04:59:38.400Z,57.20
2017-05-18T05:02:08.027Z,56.90
2017-05-18T05:04:36.303Z,56.00
2017-05-18T05:07:05.327Z,55.50
2017-05-18T05:09:33.912Z,55.60
2017-05-18T05:12:02.188Z,56.00
2017-05-18T05:14:30.479Z,55.50
2017-05-18T05:16:59.836Z,55.50
2017-05-18T05:19:28.122Z,55.20
2017-05-18T05:21:57.172Z,54.80
2017-05-18T05:24:25.859Z,54.80
2017-05-18T05:26:54.137Z,54.40
2017-05-18T05:29:22.415Z,54.10
2017-05-18T05:31:52.782Z,55.00
2017-05-18T05:34:21.494Z,54.40
2017-05-18T05:36:50.518Z,53.60
2017-05-18T05:39:18.824Z,53.50
2017-05-18T05:41:47.852Z,53.10
2017-05-18T05:44:16.435Z,52.40
2017-05-18T05:46:44.723Z,52.20
2017-05-18T05:49:13.015Z,52.20
2017-05-18T05:51:41.650Z,52.10
2017-05-18T05:54:09.941Z,51.30
2017-05-18T05:56:38.232Z,51.60
2017-05-18T05:59:06.930Z,51.50
2017-05-18T06:01:35.574Z,50.80
2017-05-18T06:04:03.855Z,50.30
2017-05-18T06:06:32.429Z,50.30
2017-05-18T06:09:00.711Z,50.00
2017-05-18T06:11:29.911Z,49.50
2017-05-18T06:13:58.483Z,49.40
2017-05-18T06:16:26.793Z,49.30
2017-05-18T06:18:55.122Z,49.50
2017-05-18T06:21:23.728Z,49.30
2017-05-18T06:23:52.005Z,49.30
2017-05-18T06:26:20.281Z,48.40
2017-05-18T06:28:48.867Z,48.60
2017-05-18T06:31:17.157Z,48.60
2017-05-18T06:33:45.435Z,48.40
2017-05-18T06:36:14.011Z,48.00
2017-05-18T06:38:42.284Z,47.60
2017-05-18T06:41:10.567Z,46.90
2017-05-18T06:43:39.887Z,46.60
2017-05-18T06:46:08.183Z,46.60
2017-05-18T06:48:36.472Z,46.00
2017-05-18T06:51:05.817Z,44.10
2017-05-18T06:53:34.101Z,43.80
2017-05-18T06:56:03.129Z,43.70
2017-05-18T06:58:31.765Z,42.80
2017-05-18T07:01:00.788Z,41.70
2017-05-18T07:03:29.062Z,41.70
2017-05-18T07:05:57.642Z,41.80
2017-05-18T07:08:25.919Z,41.60
2017-05-18T07:10:54.205Z,40.00
2017-05-18T07:13:23.548Z,40.40
2017-05-18T07:15:51.866Z,39.70
2017-05-18T07:18:20.143Z,39.70
2017-05-18T07:20:48.743Z,39.10
2017-05-18T07:23:17.008Z,39.10
2017-05-18T07:25:45.283Z,39.00
2017-05-18T07:28:13.854Z,38.70
2017-05-18T07:30:42.883Z,39.00
2017-05-18T07:33:11.153Z,38.70
2017-05-18T07:35:39.847Z,39.40
2017-05-18T07:38:08.123Z,38.10
2017-05-18T07:40:37.168Z,38.90
2017-05-18T07:43:05.771Z,37.40
2017-05-18T07:45:35.656Z,37.70
2017-05-18T07:48:03.980Z,37.50
2017-05-18T07:50:32.572Z,38.70
2017-05-18T07:53:00.847Z,36.50
2017-05-18T07:55:29.125Z,36.90
2017-05-18T07:57:58.505Z,36.80
2017-05-18T08:00:26.789Z,35.70
2017-05-18T08:02:55.072Z,36.10
2017-05-18T08:05:23.694Z,35.10
2017-05-18T08:07:51.979Z,35.10
2017-05-18T08:10:20.266Z,36.40
2017-05-18T08:12:48.868Z,34.40
2017-05-18T08:15:17.143Z,34.50
2017-05-18T08:17:45.415Z,33.80
2017-05-18T08:20:14.785Z,33.60
2017-05-18T08:22:43.084Z,33.50
2017-05-18T08:25:11.360Z,32.80
2017-05-18T08:27:39.977Z,33.30
2017-05-18T08:30:08.260Z,32.50
2017-05-18T08:32:37.271Z,32.80
2017-05-18T08:35:05.876Z,31.80
2017-05-18T08:37:34.164Z,31.80
2017-05-18T08:40:03.202Z,31.40
2017-05-18T08:42:31.789Z,31.10
2017-05-18T08:45:00.067Z,31.30
2017-05-18T08:47:29.151Z,30.60
2017-05-18T08:49:58.534Z,29.90
2017-05-18T08:52:27.553Z,30.20
2017-05-18T08:54:55.832Z,28.80
2017-05-18T08:57:24.425Z,28.90
2017-05-18T08:59:52.712Z,29.20
2017-05-18T09:02:21.743Z,28.90
2017-05-18T09:04:50.335Z,28.80
2017-05-18T09:07:18.666Z,28.10
2017-05-18T09:09:48.267Z,28.10
2017-05-18T09:12:17.101Z,27.70
2017-05-18T09:14:45.403Z,27.70
2017-05-18T09:17:13.684Z,28.00
2017-05-18T09:19:42.348Z,28.10
2017-05-18T09:22:10.624Z,27.80
2017-05-18T09:24:38.892Z,27.30
2017-05-18T09:27:07.539Z,25.40
2017-05-18T09:29:35.820Z,25.80
2017-05-18T09:32:04.840Z,26.10
2017-05-18T09:34:33.468Z,26.00
2017-05-18T09:37:02.496Z,25.80
2017-05-18T09:39:30.783Z,24.90
2017-05-18T09:41:59.468Z,25.80
2017-05-18T09:44:27.743Z,25.00
2017-05-18T09:46:56.771Z,25.00
2017-05-18T09:49:25.364Z,24.00
2017-05-18T09:51:53.687Z,23.40
2017-05-18T09:54:22.012Z,22.90
2017-05-18T09:56:51.380Z,22.90
2017-05-18T09:59:19.655Z,23.40
2017-05-18T10:01:47.923Z,22.90
2017-05-18T10:04:17.245Z,23.40
2017-05-18T10:06:45.516Z,24.10
2017-05-18T10:09:13.799Z,24.90
2017-05-18T10:11:42.494Z,23.70
2017-05-18T10:14:10.789Z,23.10
2017-05-18T10:16:39.172Z,22.60
2017-05-18T10:19:07.764Z,22.50
2017-05-18T10:21:36.048Z,22.80
2017-05-18T10:24:04.324Z,23.30
2017-05-18T10:26:34.677Z,24.20
2017-05-18T10:29:02.959Z,24.10
2017-05-18T10:31:31.242Z,23.50
2017-05-18T10:34:00.605Z,23.60
2017-05-18T10:36:28.885Z,22.70
2017-05-18T10:38:57.188Z,22.60
2017-05-18T10:41:25.799Z,22.20
2017-05-18T10:43:54.079Z,23.10
2017-05-18T10:46:22.353Z,23.20
2017-05-18T10:48:51.704Z,22.30
2017-05-18T10:51:20.015Z,22.80
2017-05-18T10:53:48.300Z,21.70
2017-05-18T10:56:16.892Z,21.50
2017-05-18T10:58:45.177Z,21.70
2017-05-18T11:01:13.452Z,20.40
2017-05-18T11:03:42.804Z,20.20
2017-05-18T11:06:11.076Z,20.40
2017-05-18T11:08:39.345Z,21.10
2017-05-18T11:11:08.710Z,21.90
2017-05-18T11:13:37.081Z,21.50
2017-05-18T11:16:05.357Z,21.80
2017-05-18T11:18:34.015Z,21.20
2017-05-18T11:21:02.282Z,20.90
2017-05-18T11:23:30.559Z,20.90
2017-05-18T11:25:59.915Z,20.90
2017-05-18T11:28:28.220Z,20.70
2017-05-18T11:30:56.496Z,20.30
2017-05-18T11:33:25.077Z,20.50
2017-05-18T11:35:53.353Z,21.00
2017-05-18T11:38:21.635Z,21.00
2017-05-18T11:40:50.203Z,20.60
2017-05-18T11:43:18.476Z,21.10
2017-05-18T11:45:47.505Z,20.50
2017-05-18T11:48:16.099Z,21.00
2017-05-18T11:50:44.376Z,21.20
2017-05-18T11:53:12.663Z,21.00
2017-05-18T11:55:42.005Z,20.80
2017-05-18T11:58:10.276Z,20.40
2017-05-18T12:00:38.543Z,19.90
2017-05-18T12:03:07.215Z,20.10
2017-05-18T12:05:35.487Z,19.50
2017-05-18T12:08:04.516Z,20.10
2017-05-18T12:10:33.110Z,19.70
2017-05-18T12:13:01.383Z,20.40
2017-05-18T12:15:29.674Z,20.60
2017-05-18T12:17:59.018Z,20.20
2017-05-18T12:20:27.303Z,19.50
2017-05-18T12:22:56.341Z,19.50
2017-05-18T12:25:24.948Z,19.70
2017-05-18T12:27:53.233Z,19.60
2017-05-18T12:30:21.516Z,19.90
2017-05-18T12:32:50.096Z,20.20
2017-05-18T12:35:18.378Z,20.20
2017-05-18T12:37:46.680Z,19.90
2017-05-18T12:40:15.331Z,19.40
2017-05-18T12:42:43.611Z,19.30
2017-05-18T12:45:11.880Z,19.20
2017-05-18T12:47:40.463Z,19.20
2017-05-18T12:50:09.483Z,19.40
2017-05-18T12:52:37.760Z,19.40
2017-05-18T12:55:06.349Z,18.80
2017-05-18T12:57:34.619Z,19.40
2017-05-18T13:00:03.641Z,19.40
2017-05-18T13:02:32.260Z,19.20
2017-05-18T13:05:00.547Z,19.80
2017-05-18T13:07:28.844Z,20.30
2017-05-18T13:09:57.443Z,19.60
2017-05-18T13:12:25.733Z,20.60
2017-05-18T13:14:54.007Z,19.90
2017-05-18T13:17:22.587Z,20.30
2017-05-18T13:19:50.851Z,20.40
2017-05-18T13:22:19.146Z,20.20
2017-05-18T13:24:47.812Z,20.00
2017-05-18T13:27:16.087Z,20.30
2017-05-18T13:29:44.364Z,20.70
2017-05-18T13:32:13.680Z,19.70
2017-05-18T13:34:41.965Z,20.30
2017-05-18T13:37:10.254Z,20.30
2017-05-18T13:39:38.913Z,20.50
2017-05-18T13:42:07.201Z,20.30
2017-05-18T13:44:36.226Z,20.50
2017-05-18T13:47:04.828Z,20.30
2017-05-18T13:49:33.102Z,20.80
2017-05-18T13:52:01.380Z,20.60
2017-05-18T13:54:30.724Z,21.00
2017-05-18T13:56:59.037Z,20.20
2017-05-18T13:59:27.331Z,20.60
2017-05-18T14:01:55.907Z,20.70
2017-05-18T14:04:24.183Z,21.10
2017-05-18T14:06:52.468Z,21.30
2017-05-18T14:09:21.117Z,21.40
2017-05-18T14:11:49.407Z,21.20
2017-05-18T14:14:17.685Z,21.80
2017-05-18T14:16:46.299Z,21.40
2017-05-18T14:19:14.577Z,20.90
2017-05-18T14:21:42.861Z,21.60
2017-05-18T14:26:00.660Z,21.80
2017-05-18T14:28:28.948Z,22.10
2017-05-18T14:30:57.295Z,21.50
2017-05-18T14:33:26.628Z,22.00
2017-05-18T14:35:55.018Z,22.00
2017-05-18T14:38:23.301Z,22.10
2017-05-18T14:40:52.724Z,21.40
2017-05-18T14:43:21.022Z,22.10
2017-05-18T14:45:49.300Z,22.50
2017-05-18T14:48:18.015Z,22.80
2017-05-18T14:50:46.299Z,23.20
2017-05-18T14:53:14.659Z,22.70
2017-05-18T14:55:43.307Z,22.40
2017-05-18T14:58:13.523Z,23.40
2017-05-18T15:00:41.819Z,22.80
2017-05-18T15:03:10.595Z,22.80
2017-05-18T15:05:38.860Z,23.60
2017-05-18T15:08:07.153Z,23.80
2017-05-18T15:10:36.545Z,23.50
2017-05-18T15:13:04.877Z,23.80
2017-05-18T15:15:33.163Z,23.70
2017-05-18T15:18:02.529Z,22.80
2017-05-18T15:20:30.803Z,23.70
2017-05-18T15:22:59.829Z,23.90
2017-05-18T15:25:28.420Z,24.00
2017-05-18T15:27:56.788Z,23.60
2017-05-18T15:30:25.097Z,24.60
2017-05-18T15:32:54.538Z,23.70
2017-05-18T15:35:22.818Z,23.70
2017-05-18T15:37:51.123Z,24.20
2017-05-18T15:40:19.727Z,24.50
2017-05-18T15:42:48.056Z,24.30
2017-05-18T15:45:16.343Z,24.30
2017-05-18T15:47:44.918Z,24.90
2017-05-18T15:50:13.283Z,24.40
2017-05-18T15:52:41.555Z,24.70
2017-05-18T15:55:10.315Z,25.10
2017-05-18T15:57:38.601Z,25.50
2017-05-18T16:00:07.612Z,25.30
2017-05-18T16:02:36.217Z,25.10
2017-05-18T16:05:04.492Z,25.40
2017-05-18T16:07:32.766Z,26.10
2017-05-18T16:10:01.372Z,25.20
2017-05-18T16:12:29.648Z,25.50
2017-05-18T16:14:57.926Z,25.90
2017-05-18T16:17:27.431Z,26.10
2017-05-18T16:19:55.785Z,25.90
2017-05-18T16:22:24.071Z,26.00
2017-05-18T16:24:52.622Z,26.20
2017-05-18T16:27:20.912Z,26.70
2017-05-18T16:29:49.943Z,26.10
2017-05-18T16:32:18.550Z,26.30
2017-05-18T16:34:47.584Z,27.00
2017-05-18T16:37:15.879Z,27.10
2017-05-18T16:39:44.464Z,26.80
2017-05-18T16:42:13.505Z,27.20
2017-05-18T16:44:41.815Z,27.70
2017-05-18T16:47:10.444Z,27.70
2017-05-18T16:49:39.524Z,27.50
2017-05-18T16:52:07.795Z,27.60
2017-05-18T16:54:37.184Z,28.00
2017-05-18T16:57:05.724Z,27.90
2017-05-18T16:59:34.002Z,28.20
2017-05-18T17:02:02.682Z,28.20
2017-05-18T17:04:30.971Z,28.40
2017-05-18T17:06:59.244Z,28.70
2017-05-18T17:09:27.864Z,28.50
2017-05-18T17:11:56.156Z,28.50
2017-05-18T17:14:24.436Z,29.20
2017-05-18T17:16:53.107Z,28.90
2017-05-18T17:19:21.410Z,29.00
2017-05-18T17:21:49.690Z,28.70
2017-05-18T17:26:47.136Z,29.30
2017-05-18T17:29:16.191Z,29.70
2017-05-18T17:31:44.940Z,30.20
2017-05-18T17:34:13.234Z,29.90
2017-05-18T17:36:41.505Z,30.00
2017-05-18T17:39:10.168Z,30.40
2017-05-18T17:41:38.496Z,30.50
2017-05-18T17:44:06.767Z,30.40
2017-05-18T17:46:35.411Z,30.80
2017-05-18T17:49:03.719Z,31.40
2017-05-18T17:51:32.041Z,31.20
2017-05-18T17:54:00.636Z,31.30
2017-05-18T17:56:28.931Z,31.80
2017-05-18T17:58:57.992Z,31.60
2017-05-18T18:01:26.656Z,31.70
2017-05-18T18:03:54.980Z,32.00
2017-05-18T18:11:22.127Z,32.70
2017-05-18T18:13:50.414Z,32.90
2017-05-18T18:16:19.086Z,33.40
2017-05-18T18:18:47.369Z,33.70
2017-05-18T18:21:16.389Z,34.50
2017-05-18T18:23:44.989Z,33.80
2017-05-18T18:26:13.265Z,33.80
2017-05-18T18:28:42.306Z,33.90
2017-05-18T18:31:10.933Z,33.90
2017-05-18T18:33:39.973Z,34.20
2017-05-18T18:36:08.264Z,34.20
2017-05-18T18:38:37.679Z,34.50
2017-05-18T18:41:05.967Z,34.60
2017-05-18T18:43:34.241Z,34.70
2017-05-18T18:46:02.838Z,35.60
2017-05-18T18:48:31.893Z,36.00
2017-05-18T18:51:00.200Z,36.60
2017-05-18T18:53:28.824Z,36.50
2017-05-18T18:55:57.132Z,36.80
2017-05-18T18:58:25.426Z,37.50
2017-05-18T19:00:54.040Z,37.20
2017-05-18T19:03:22.337Z,37.30
2017-05-18T19:05:50.655Z,37.70
2017-05-18T19:08:19.312Z,38.00
2017-05-18T19:10:47.623Z,38.60
2017-05-18T19:13:15.901Z,38.80
2017-05-18T19:15:44.546Z,39.10
2017-05-18T19:18:12.844Z,39.10
2017-05-18T19:20:41.487Z,38.10
2017-05-18T19:23:10.100Z,39.40
2017-05-18T19:25:38.418Z,39.60
2017-05-18T19:28:06.702Z,40.70
2017-05-18T19:30:35.400Z,40.10
2017-05-18T19:33:03.688Z,40.30
2017-05-18T19:35:31.990Z,39.70
2017-05-18T19:38:00.547Z,39.70
2017-05-18T19:40:28.852Z,41.00
2017-05-18T19:42:57.151Z,40.90
2017-05-18T19:45:25.800Z,41.30
2017-05-18T19:47:54.153Z,41.00
2017-05-18T19:50:23.192Z,41.10
2017-05-18T19:52:51.808Z,41.30
2017-05-18T19:55:20.100Z,41.30
2017-05-18T19:57:48.380Z,41.50
2017-05-18T20:00:16.992Z,41.60
2017-05-18T20:02:45.291Z,41.60
2017-05-18T20:05:13.575Z,42.20
2017-05-18T20:07:42.289Z,42.10
2017-05-18T20:10:10.596Z,41.80
2017-05-18T20:12:38.885Z,42.00
2017-05-18T20:15:07.568Z,42.80
2017-05-18T20:17:35.876Z,43.30
2017-05-18T20:20:04.248Z,43.10
2017-05-18T20:22:32.832Z,43.20
2017-05-18T20:25:01.237Z,43.10
2017-05-18T20:29:59.676Z,43.80
2017-05-18T20:32:28.828Z,42.80
2017-05-18T20:34:57.107Z,43.30
2017-05-18T20:37:25.720Z,43.80
2017-05-18T20:39:54.007Z,44.00
2017-05-18T20:42:22.303Z,44.10
2017-05-18T20:44:50.875Z,44.10
2017-05-18T20:47:19.178Z,44.70
2017-05-18T20:49:48.203Z,45.20
2017-05-18T20:54:45.755Z,45.40
2017-05-18T20:57:14.036Z,45.40
2017-05-18T20:59:43.940Z,45.60
2017-05-18T21:02:12.254Z,45.20
2017-05-18T21:04:40.551Z,45.40
2017-05-18T21:07:09.227Z,45.50
2017-05-18T21:09:37.512Z,45.60
2017-05-18T21:12:06.547Z,45.80
2017-05-18T21:14:35.120Z,46.10
2017-05-18T21:17:03.424Z,46.40
2017-05-18T21:19:32.468Z,46.40
2017-05-18T21:22:01.144Z,47.60
2017-05-18T21:24:29.444Z,47.30
2017-05-18T21:26:58.479Z,47.10
2017-05-18T21:29:27.257Z,47.00
2017-05-18T21:31:55.540Z,47.30
2017-05-18T21:34:23.819Z,47.80
2017-05-18T21:36:53.164Z,48.10
2017-05-18T21:39:21.457Z,48.80
2017-05-18T21:41:50.546Z,48.70
2017-05-18T21:44:19.180Z,48.80
2017-05-18T21:46:47.460Z,48.90
2017-05-18T21:49:16.483Z,49.00
2017-05-18T21:51:45.942Z,49.30
2017-05-18T21:54:14.272Z,49.50
2017-05-18T21:56:42.566Z,49.60
2017-05-18T21:59:11.937Z,49.80
2017-05-18T22:01:40.980Z,49.70
2017-05-18T22:04:09.274Z,49.90
2017-05-18T22:06:37.942Z,50.00
2017-05-18T22:09:06.995Z,50.50
2017-05-18T22:11:35.285Z,49.80
2017-05-18T22:14:04.650Z,50.60
2017-05-18T22:16:32.944Z,50.50
2017-05-18T22:19:01.627Z,49.80
2017-05-18T22:21:30.183Z,50.60
2017-05-18T22:23:59.257Z,50.30
2017-05-18T22:26:28.301Z,50.10
2017-05-18T22:28:56.993Z,50.60
2017-05-18T22:31:25.316Z,50.60
2017-05-18T22:33:53.612Z,50.60
2017-05-18T22:36:22.232Z,50.90
2017-05-18T22:38:50.552Z,51.00
2017-05-18T22:41:19.591Z,51.10
2017-05-18T22:43:48.212Z,51.00
2017-05-18T22:46:16.512Z,51.40
2017-05-18T22:48:44.784Z,51.30
2017-05-18T22:51:13.371Z,51.10
2017-05-18T22:53:41.680Z,51.40
2017-05-18T22:56:09.968Z,51.50
2017-05-18T22:58:38.544Z,51.60
2017-05-18T23:01:06.840Z,52.20
2017-05-18T23:03:35.116Z,52.20
2017-05-18T23:06:04.471Z,51.90
2017-05-18T23:08:32.763Z,51.80
2017-05-18T23:11:01.801Z,51.90
2017-05-18T23:13:30.378Z,52.40
2017-05-18T23:15:58.659Z,52.20
2017-05-18T23:18:26.945Z,52.30
2017-05-18T23:20:55.569Z,52.50
2017-05-18T23:23:23.855Z,52.70
2017-05-18T23:25:52.887Z,52.90
2017-05-18T23:28:21.455Z,53.10
2017-05-18T23:30:49.743Z,53.20
2017-05-18T23:33:18.032Z,53.10
2017-05-18T23:35:47.384Z,53.10
2017-05-18T23:38:15.679Z,53.80
2017-05-18T23:40:44.707Z,53.40
2017-05-18T23:43:13.297Z,54.00
2017-05-18T23:45:41.583Z,53.70
2017-05-18T23:48:10.609Z,53.50
2017-05-18T23:50:39.219Z,53.90
2017-05-18T23:53:07.510Z,54.00
2017-05-18T23:55:35.798Z,54.50
2017-05-18T23:58:04.504Z,54.40
